M I D A S
Marine Information and Data Acquisition System
Tripno 1660 of the Zeeleeuw from 2009-03-19 07:30:53 to 2009-03-19 13:03:15
Back to CruiseResearch ActivitiesStationsMapUnderway DataData graphs

EquipmentUnitsComment
TimeDGPSUTC
LatitudeDGPSDM.mWGS84
LongitudeDGPSDM.mWGS84
HeadingGyrodeg 
SOGDGPSknotsSpeed over ground
COGDGPSdegCourse over ground
DepthEcho soundermeters200 kHz
Missing or incorrect values are displayed as -999
Navigation data collected by the RV Zeeleeuw from 2009-03-19 07:24:05 to 2009-03-19 13:13:15
Time Latitude Longitude Heading SOG COG Depth
2009-03-19 07:25:13 51°13.675 2°55.904 110.5 2.7 291 -999
2009-03-19 07:26:13 51°13.692 2°55.826 105.2 3.4 287 -999
2009-03-19 07:27:13 51°13.702 2°55.763 95 1.5 281 4.7
2009-03-19 07:28:11 51°13.706 2°55.755 60.3 0.7 48 12.6
2009-03-19 07:29:09 51°13.708 2°55.762 19.4 0.8 202 12.6
2009-03-19 07:30:09 51°13.707 2°55.758 349.9 0.8 342 4.9
2009-03-19 07:31:09 51°13.735 2°55.727 326.1 3.2 322 12.5
2009-03-19 07:32:09 51°13.788 2°55.671 333.3 4.2 331 11.7
2009-03-19 07:33:09 51°13.853 2°55.629 353.5 3.8 351 11.5
2009-03-19 07:34:09 51°13.904 2°55.636 10.5 2.7 7 12.1
2009-03-19 07:35:09 51°13.941 2°55.63 342 1.7 344 11.9
2009-03-19 07:36:09 51°13.964 2°55.613 332.3 1.8 329 12.1
2009-03-19 07:37:09 51°14.035 2°55.539 325.6 7.7 324 11.8
2009-03-19 07:38:10 51°14.159 2°55.4 325.7 9.6 324 4.6
2009-03-19 07:39:10 51°14.282 2°55.218 312.5 10.6 310 12.3
2009-03-19 07:40:09 51°14.383 2°54.977 303.6 11.7 302 11.4
2009-03-19 07:41:09 51°14.513 2°54.727 316.6 12.2 314 11.9
2009-03-19 07:42:09 51°14.671 2°54.521 328.7 12.2 328 11.4
2009-03-19 07:43:09 51°14.84 2°54.348 326 12.1 326 11
2009-03-19 07:44:10 51°15.012 2°54.176 329.7 12.1 329 10
2009-03-19 07:45:09 51°15.183 2°54.018 333.2 12.1 332 10.3
2009-03-19 07:46:09 51°15.361 2°53.864 332.9 12.2 332 10.8
2009-03-19 07:47:09 51°15.54 2°53.711 333.3 12.1 332 11.8
2009-03-19 07:48:09 51°15.717 2°53.558 332.8 12.1 332 13
2009-03-19 07:49:09 51°15.895 2°53.405 333.4 12.1 333 13.2
2009-03-19 07:50:09 51°16.074 2°53.253 332.7 12.3 332 13
2009-03-19 07:51:09 51°16.257 2°53.108 335.3 12.2 334 13
2009-03-19 07:52:09 51°16.44 2°52.971 337 12.2 336 13
2009-03-19 07:53:09 51°16.628 2°52.843 337.4 12.2 337 12.5
2009-03-19 07:54:09 51°16.816 2°52.722 337 12.2 337 10.9
2009-03-19 07:55:09 51°17.005 2°52.604 340.5 12.1 340 11
2009-03-19 07:56:09 51°17.202 2°52.52 348 12.3 348 11
2009-03-19 07:57:09 51°17.404 2°52.457 351.3 12.4 351 11.3
2009-03-19 07:58:09 51°17.608 2°52.407 353.3 12.4 353 11.4
2009-03-19 07:59:09 51°17.814 2°52.378 358.6 12.5 358 11.5
2009-03-19 08:00:09 51°18.022 2°52.383 1.7 12.5 1 11.7
2009-03-19 08:01:09 51°18.229 2°52.388 1.2 12.5 1 12
2009-03-19 08:02:09 51°18.437 2°52.384 0.4 12.5 359 12.4
2009-03-19 08:03:09 51°18.644 2°52.373 -999 12.4 358 12.8
2009-03-19 08:04:09 51°18.85 2°52.36 359.8 12.4 358 13.7
2009-03-19 08:05:09 51°19.057 2°52.348 359.8 12.5 358 14.6
2009-03-19 08:06:09 51°19.266 2°52.336 359.7 12.5 358 15.6
2009-03-19 08:07:09 51°19.475 2°52.321 357.9 12.5 358 16.3
2009-03-19 08:08:10 51°19.688 2°52.315 -999 12.6 359 16.8
2009-03-19 08:09:09 51°19.894 2°52.317 1 12.5 -999 17.1
2009-03-19 08:10:09 51°20.102 2°52.332 4.2 12.6 3 17.2
2009-03-19 08:11:09 51°20.31 2°52.347 4.2 12.5 3 16.9
2009-03-19 08:12:09 51°20.518 2°52.357 3.4 12.5 2 15.5
2009-03-19 08:13:09 51°20.726 2°52.365 3 12.5 1 15.2
2009-03-19 08:14:09 51°20.936 2°52.383 6.4 12.6 5 15.8
2009-03-19 08:15:09 51°21.144 2°52.416 6.9 12.6 7 17.5
2009-03-19 08:16:09 51°21.351 2°52.455 7.9 12.5 7 18.4
2009-03-19 08:17:09 51°21.559 2°52.497 8.9 12.6 7 20
2009-03-19 08:18:09 51°21.767 2°52.541 8.9 12.6 8 22.1
2009-03-19 08:19:09 51°21.973 2°52.592 11.3 12.4 9 24.1
2009-03-19 08:20:09 51°22.179 2°52.646 10.5 12.5 9 24.8
2009-03-19 08:21:09 51°22.386 2°52.691 10.7 12.6 9 24
2009-03-19 08:22:09 51°22.592 2°52.743 11 12.6 10 23.4
2009-03-19 08:23:09 51°22.797 2°52.799 11.1 12.6 11 23.8
2009-03-19 08:24:09 51°23.004 2°52.862 9.9 12.6 9 23.7
2009-03-19 08:25:09 51°23.21 2°52.916 11.4 12.6 8 22
2009-03-19 08:26:09 51°23.416 2°52.982 12.5 12.6 12 21.3
2009-03-19 08:27:09 51°23.623 2°53.049 12.3 12.6 11 21.9
2009-03-19 08:28:10 51°23.834 2°53.112 11.8 12.7 11 21
2009-03-19 08:29:09 51°24.037 2°53.175 11.6 12.7 10 18.5
2009-03-19 08:30:09 51°24.244 2°53.24 11.9 12.6 11 17.8
2009-03-19 08:31:09 51°24.451 2°53.296 9.3 12.6 9 19.1
2009-03-19 08:32:09 51°24.657 2°53.348 9.7 12.6 9 20.7
2009-03-19 08:33:09 51°24.863 2°53.405 10.2 12.6 10 19.9
2009-03-19 08:34:09 51°25.068 2°53.471 12.8 12.6 13 21.9
2009-03-19 08:35:09 51°25.274 2°53.532 10.5 12.6 10 21.5
2009-03-19 08:36:09 51°25.48 2°53.598 12.4 12.6 12 24.2
2009-03-19 08:37:09 51°25.686 2°53.655 10 12.6 9 26.7
2009-03-19 08:38:09 51°25.892 2°53.718 10.3 12.6 10 28.2
2009-03-19 08:39:09 51°26.097 2°53.78 12 12.6 13 31
2009-03-19 08:40:09 51°26.302 2°53.853 13.1 12.6 13 32.4
2009-03-19 08:41:09 51°26.507 2°53.918 9.8 12.5 9 33.7
2009-03-19 08:42:09 51°26.713 2°53.977 12.4 12.6 12 32.1
2009-03-19 08:43:09 51°26.919 2°54.037 9.5 12.6 9 24.1
2009-03-19 08:44:09 51°27.125 2°54.095 11.4 12.6 11 24.9
2009-03-19 08:45:09 51°27.33 2°54.162 13 12.6 11 26.2
2009-03-19 08:46:09 51°27.537 2°54.225 12.5 12.7 10 26.8
2009-03-19 08:47:09 51°27.745 2°54.284 12.4 12.7 10 24.6
2009-03-19 08:48:09 51°27.954 2°54.34 12.3 12.7 10 21.9
2009-03-19 08:49:10 51°28.167 2°54.392 9.3 12.7 7 22.1
2009-03-19 08:50:09 51°28.371 2°54.437 9.5 12.6 7 22.4
2009-03-19 08:51:09 51°28.578 2°54.486 10.2 12.6 9 22.6
2009-03-19 08:52:09 51°28.785 2°54.542 12.1 12.6 10 25.2
2009-03-19 08:53:09 51°28.991 2°54.609 11.9 12.7 12 26.7
2009-03-19 08:54:09 51°29.197 2°54.662 10.7 12.5 10 28.5
2009-03-19 08:55:09 51°29.403 2°54.713 10.2 12.5 9 29.6
2009-03-19 08:56:09 51°29.608 2°54.774 13.2 12.6 12 29.6
2009-03-19 08:57:09 51°29.815 2°54.837 11.6 12.6 10 28.9
2009-03-19 08:58:09 51°30.019 2°54.903 13.7 12.5 12 33.1
2009-03-19 08:59:09 51°30.223 2°54.971 12.2 12.6 11 35.3
2009-03-19 09:00:09 51°30.43 2°55.025 11.4 12.6 9 36.1
2009-03-19 09:01:09 51°30.638 2°55.071 10.5 12.5 8 36.8
2009-03-19 09:02:09 51°30.845 2°55.121 10.9 12.7 9 27.5
2009-03-19 09:03:09 51°31.054 2°55.172 11.2 12.8 9 15.9
2009-03-19 09:04:09 51°31.265 2°55.215 8.6 12.8 6 17.8
2009-03-19 09:05:09 51°31.477 2°55.248 7.1 12.7 5 18.8
2009-03-19 09:06:09 51°31.689 2°55.272 7.9 12.8 5 20
2009-03-19 09:07:10 51°31.905 2°55.303 6.8 12.7 5 20
2009-03-19 09:08:09 51°32.113 2°55.326 7.3 12.4 4 21.7
2009-03-19 09:09:10 51°32.269 2°55.358 19.4 6.6 18 21.6
2009-03-19 09:10:09 51°32.322 2°55.409 60.9 1.8 42 22.3
2009-03-19 09:11:09 51°32.33 2°55.419 99.1 0.3 23 23.1
2009-03-19 09:12:09 51°32.333 2°55.418 133.5 0.2 318 23.1
2009-03-19 09:13:09 51°32.334 2°55.414 150 0.2 307 23.1
2009-03-19 09:14:09 51°32.336 2°55.407 156.1 0.3 288 22.9
2009-03-19 09:15:09 51°32.337 2°55.398 157.1 0.3 288 22.5
2009-03-19 09:16:09 51°32.339 2°55.387 156.8 0.5 275 22.3
2009-03-19 09:17:09 51°32.34 2°55.375 154.4 0.5 281 22.2
2009-03-19 09:18:09 51°32.342 2°55.363 151.4 0.5 290 21.5
2009-03-19 09:19:09 51°32.344 2°55.351 147.4 0.5 284 20.9
2009-03-19 09:20:09 51°32.347 2°55.339 141.4 0.5 286 20.6
2009-03-19 09:21:09 51°32.349 2°55.327 140.1 0.5 276 18.9
2009-03-19 09:22:09 51°32.35 2°55.315 140 0.5 271 20.2
2009-03-19 09:23:09 51°32.352 2°55.303 141.8 0.4 284 21.6
2009-03-19 09:24:09 51°32.353 2°55.292 142.7 0.5 275 21.9
2009-03-19 09:25:09 51°32.355 2°55.28 143.4 0.5 282 22.4
2009-03-19 09:26:09 51°32.357 2°55.267 142.2 0.6 290 22.7
2009-03-19 09:27:10 51°32.36 2°55.254 143.4 0.5 290 22.7
2009-03-19 09:28:09 51°32.363 2°55.239 145.2 0.7 287 22.7
2009-03-19 09:29:09 51°32.366 2°55.224 145.7 0.7 287 22.1
2009-03-19 09:30:09 51°32.37 2°55.21 145.2 0.6 284 21.6
2009-03-19 09:31:09 51°32.373 2°55.195 144.6 0.6 291 21.1
2009-03-19 09:32:09 51°32.376 2°55.18 144.1 0.6 282 19.6
2009-03-19 09:33:09 51°32.379 2°55.164 141.9 0.6 285 21.5
2009-03-19 09:34:09 51°32.382 2°55.149 140.6 0.6 275 22.4
2009-03-19 09:35:09 51°32.383 2°55.134 141.3 0.6 274 22.9
2009-03-19 09:36:10 51°32.384 2°55.117 144.7 0.6 287 23.4
2009-03-19 09:37:09 51°32.386 2°55.102 146.9 0.7 285 23.5
2009-03-19 09:38:09 51°32.389 2°55.086 148.4 0.6 286 23.3
2009-03-19 09:39:10 51°32.392 2°55.07 150.5 0.6 291 23.4
2009-03-19 09:40:10 51°32.395 2°55.053 152 0.7 280 23.1
2009-03-19 09:41:09 51°32.397 2°55.037 151.4 0.7 281 23.1
2009-03-19 09:42:09 51°32.399 2°55.021 150.3 0.6 286 22.4
2009-03-19 09:43:10 51°32.401 2°55.006 151.2 0.5 290 -999
2009-03-19 09:44:12 51°32.403 2°54.989 149.6 0.6 282 20.5
2009-03-19 09:45:11 51°32.406 2°54.974 148.7 0.5 294 20.8
2009-03-19 09:46:10 51°32.408 2°54.959 145.9 0.7 279 21.6
2009-03-19 09:47:09 51°32.409 2°54.944 145 0.7 274 22.9
2009-03-19 09:48:09 51°32.41 2°54.927 145.2 0.7 272 23.2
2009-03-19 09:49:09 51°32.411 2°54.91 145.1 0.7 272 23.4
2009-03-19 09:50:09 51°32.412 2°54.893 145.4 0.6 275 23.5
2009-03-19 09:51:09 51°32.412 2°54.876 145.9 0.7 274 23.6
2009-03-19 09:52:10 51°32.413 2°54.859 146.2 0.8 264 23.5
2009-03-19 09:53:09 51°32.413 2°54.841 146.7 0.7 271 23.3
2009-03-19 09:54:09 51°32.413 2°54.824 146 0.7 272 22.8
2009-03-19 09:55:09 51°32.412 2°54.807 145.2 0.6 265 22.4
2009-03-19 09:56:09 51°32.412 2°54.791 144.1 0.6 260 20.6
2009-03-19 09:57:09 51°32.411 2°54.775 143.1 0.6 264 20.6
2009-03-19 09:58:09 51°32.41 2°54.759 142.3 0.5 261 22.7
2009-03-19 09:59:09 51°32.407 2°54.744 140.7 0.6 261 23.2
2009-03-19 10:00:09 51°32.405 2°54.728 140.4 0.7 258 23.6
2009-03-19 10:01:09 51°32.404 2°54.711 141.5 0.6 264 23.6
2009-03-19 10:02:09 51°32.402 2°54.695 143.4 0.8 253 23.7
2009-03-19 10:03:10 51°32.4 2°54.678 143.6 0.7 258 23.5
2009-03-19 10:04:10 51°32.397 2°54.66 143.8 0.7 260 23.1
2009-03-19 10:05:10 51°32.395 2°54.642 142.3 0.8 255 22.5
2009-03-19 10:06:09 51°32.392 2°54.623 141.3 0.7 254 21.3
2009-03-19 10:07:09 51°32.389 2°54.603 140.4 0.7 255 19.7
2009-03-19 10:08:09 51°32.385 2°54.582 142.4 0.8 257 22.4
2009-03-19 10:09:09 51°32.382 2°54.562 144.2 0.8 255 23.2
2009-03-19 10:10:09 51°32.378 2°54.54 145 0.9 253 22.9
2009-03-19 10:11:09 51°32.374 2°54.519 146.8 0.9 254 23.1
2009-03-19 10:12:09 51°32.371 2°54.499 145.8 0.8 258 23
2009-03-19 10:13:10 51°32.367 2°54.478 145.2 0.8 257 22.4
2009-03-19 10:14:09 51°32.364 2°54.457 145.6 0.8 256 20.6
2009-03-19 10:15:09 51°32.36 2°54.435 145.4 0.8 257 21.4
2009-03-19 10:16:09 51°32.356 2°54.414 144.5 0.9 252 22.5
2009-03-19 10:17:10 51°32.351 2°54.392 143.1 0.8 249 22.9
2009-03-19 10:18:09 51°32.346 2°54.37 143.1 0.9 250 22.5
2009-03-19 10:19:10 51°32.341 2°54.349 142 0.8 248 21.3
2009-03-19 10:20:10 51°32.335 2°54.327 140.4 0.9 247 19.7
2009-03-19 10:21:10 51°32.329 2°54.307 137.8 0.8 245 22.5
2009-03-19 10:22:10 51°32.323 2°54.287 138.3 0.9 245 23.1
2009-03-19 10:23:10 51°32.316 2°54.265 142.4 0.9 242 23
2009-03-19 10:24:10 51°32.31 2°54.244 141.4 1 241 22.2
2009-03-19 10:25:09 51°32.303 2°54.223 140.7 0.9 239 20.7
2009-03-19 10:26:09 51°32.296 2°54.202 139.3 0.9 242 21
2009-03-19 10:27:09 51°32.284 2°54.193 123.4 1 171 22.6
2009-03-19 10:28:09 51°32.272 2°54.21 95.3 1.1 124 22.7
2009-03-19 10:29:09 51°32.272 2°54.24 65.8 1.2 65 20.6
2009-03-19 10:30:09 51°32.286 2°54.278 55.9 2 56 22
2009-03-19 10:31:09 51°32.307 2°54.326 61.1 2.4 60 22.6
2009-03-19 10:32:09 51°32.329 2°54.383 60 2.6 56 22.3
2009-03-19 10:33:09 51°32.355 2°54.442 57.1 2.8 52 20.8
2009-03-19 10:34:09 51°32.38 2°54.505 59.5 2.8 58 23.1
2009-03-19 10:35:09 51°32.405 2°54.568 57.8 2.8 57 19.3
2009-03-19 10:36:10 51°32.432 2°54.632 56.8 2.8 53 23.1
2009-03-19 10:37:10 51°32.459 2°54.694 57 2.9 52 22.7
2009-03-19 10:38:10 51°32.485 2°54.758 61.8 2.9 59 23.8
2009-03-19 10:39:10 51°32.513 2°54.823 58.8 3 56 22
2009-03-19 10:40:09 51°32.527 2°54.879 80 1.8 81 23.3
2009-03-19 10:41:09 51°32.521 2°54.911 101.9 1.1 126 23.7
2009-03-19 10:42:09 51°32.508 2°54.925 105.3 0.8 162 23.7
2009-03-19 10:43:10 51°32.496 2°54.925 105.8 0.9 195 23.1
2009-03-19 10:44:09 51°32.484 2°54.916 109.8 0.8 210 22.8
2009-03-19 10:45:10 51°32.472 2°54.9 118.8 1 225 21
2009-03-19 10:46:09 51°32.461 2°54.881 129.1 1 229 22.3
2009-03-19 10:47:10 51°32.451 2°54.861 137.3 0.9 232 23.3
2009-03-19 10:48:09 51°32.441 2°54.839 143.4 1.1 237 23.2
2009-03-19 10:49:10 51°32.431 2°54.814 151.6 1.1 237 22.8
2009-03-19 10:50:10 51°32.422 2°54.789 154.6 1.2 240 21.3
2009-03-19 10:51:10 51°32.412 2°54.764 154.7 1.1 238 21.5
2009-03-19 10:52:10 51°32.404 2°54.74 149.6 1 241 23
2009-03-19 10:53:10 51°32.394 2°54.716 147.6 1.2 236 23.5
2009-03-19 10:54:10 51°32.384 2°54.693 144.7 1 234 22.9
2009-03-19 10:55:10 51°32.374 2°54.669 142 1.1 234 21.8
2009-03-19 10:56:10 51°32.364 2°54.646 141 1.2 233 20.2
2009-03-19 10:57:10 51°32.353 2°54.622 143.5 1.1 233 22.8
2009-03-19 10:58:10 51°32.343 2°54.598 144 1.1 235 23
2009-03-19 10:59:09 51°32.332 2°54.573 144.7 1.1 236 22.2
2009-03-19 11:00:10 51°32.322 2°54.547 145.2 1.1 240 21.5
2009-03-19 11:01:10 51°32.313 2°54.519 146.2 1.2 240 18.9
2009-03-19 11:02:09 51°32.303 2°54.492 146.8 1.3 240 22.2
2009-03-19 11:03:10 51°32.293 2°54.463 148.2 1.2 240 22.3
2009-03-19 11:04:09 51°32.283 2°54.436 148.6 1.2 239 20.8
2009-03-19 11:05:09 51°32.273 2°54.408 150.3 1.2 239 21.8
2009-03-19 11:06:10 51°32.263 2°54.381 148.3 1.2 240 22.7
2009-03-19 11:07:10 51°32.253 2°54.355 148.1 1.2 243 22.4
2009-03-19 11:08:09 51°32.243 2°54.327 148.3 1.2 240 20.8
2009-03-19 11:09:09 51°32.233 2°54.3 147 1.2 237 21.5
2009-03-19 11:10:10 51°32.222 2°54.271 148.9 1.1 239 22.6
2009-03-19 11:11:09 51°32.212 2°54.243 152 1.2 239 22.7
2009-03-19 11:12:10 51°32.201 2°54.214 153.2 1.3 238 21.1
2009-03-19 11:13:10 51°32.19 2°54.185 154.7 1.3 237 21
2009-03-19 11:14:10 51°32.179 2°54.157 154.5 1.3 239 22.8
2009-03-19 11:15:10 51°32.167 2°54.128 154.5 1.3 235 22.6
2009-03-19 11:16:10 51°32.156 2°54.1 152.8 1.3 236 21.5
2009-03-19 11:17:10 51°32.143 2°54.073 152.4 1.3 225 19.9
2009-03-19 11:18:10 51°32.084 2°54.067 172.2 6 182 21.8
2009-03-19 11:19:10 51°31.963 2°54.064 174.6 7.8 180 20.9
2009-03-19 11:20:09 51°31.826 2°54.06 177.2 9.2 182 20.1
2009-03-19 11:21:10 51°31.664 2°54.046 180.1 9.6 182 20.3
2009-03-19 11:22:09 51°31.504 2°54.027 180.1 9.9 183 20.2
2009-03-19 11:23:10 51°31.335 2°54.009 179.6 10.3 184 19.4
2009-03-19 11:24:09 51°31.167 2°53.992 179.4 10.2 182 19.2
2009-03-19 11:25:09 51°30.996 2°53.973 179.3 10.2 184 19.1
2009-03-19 11:26:09 51°30.822 2°53.954 179.3 10.7 184 19.3
2009-03-19 11:27:09 51°30.644 2°53.932 179.1 10.7 184 26
2009-03-19 11:28:09 51°30.462 2°53.913 180.2 11.3 184 31.9
2009-03-19 11:29:09 51°30.266 2°53.891 179.3 12.1 186 32
2009-03-19 11:30:09 51°30.063 2°53.861 181.8 12.3 186 31.7
2009-03-19 11:31:09 51°29.856 2°53.829 181.6 12.9 186 31.2
2009-03-19 11:32:09 51°29.644 2°53.795 182.4 12.8 186 30.5
2009-03-19 11:33:09 51°29.432 2°53.761 181.1 12.9 185 29.3
2009-03-19 11:34:09 51°29.219 2°53.731 181.2 12.8 184 28
2009-03-19 11:35:09 51°29.006 2°53.701 181.9 12.8 186 26.6
2009-03-19 11:36:09 51°28.794 2°53.677 179.5 12.8 183 25.1
2009-03-19 11:37:09 51°28.581 2°53.648 182.6 13.1 186 24.3
2009-03-19 11:38:09 51°28.367 2°53.619 181.3 12.8 184 22.2
2009-03-19 11:39:09 51°28.154 2°53.589 181.9 12.8 183 19.8
2009-03-19 11:40:09 51°27.941 2°53.557 181 12.9 184 21.7
2009-03-19 11:41:09 51°27.725 2°53.527 180.8 13.1 184 19.6
2009-03-19 11:42:09 51°27.51 2°53.495 181.4 13.1 184 23.1
2009-03-19 11:43:09 51°27.295 2°53.466 181.7 13 186 26.1
2009-03-19 11:44:09 51°27.08 2°53.433 180.6 13.1 186 27.8
2009-03-19 11:45:09 51°26.865 2°53.399 182 12.9 185 27.8
2009-03-19 11:46:09 51°26.649 2°53.367 179.3 12.9 184 30.7
2009-03-19 11:47:09 51°26.435 2°53.345 179.4 12.7 183 30.8
2009-03-19 11:48:09 51°26.223 2°53.326 179.2 12.8 184 31
2009-03-19 11:49:09 51°26.009 2°53.31 179.3 12.8 183 29.5
2009-03-19 11:50:09 51°25.794 2°53.279 181.6 13.1 185 25.6
2009-03-19 11:51:09 51°25.581 2°53.246 182.4 12.8 188 23.1
2009-03-19 11:52:09 51°25.367 2°53.209 183.2 13 187 22.8
2009-03-19 11:53:09 51°25.154 2°53.171 182.6 12.8 186 21.9
2009-03-19 11:54:09 51°24.94 2°53.131 181.5 12.9 186 19.3
2009-03-19 11:55:09 51°24.726 2°53.091 183.4 13.1 187 18.4
2009-03-19 11:56:09 51°24.511 2°53.037 185.2 13.2 190 16.8
2009-03-19 11:57:09 51°24.297 2°52.981 184.4 13 191 18.1
2009-03-19 11:58:09 51°24.107 2°52.925 187.3 9.6 191 16.5
2009-03-19 11:59:09 51°23.99 2°52.893 174.1 6 185 15.3
2009-03-19 12:00:09 51°23.886 2°52.848 189 6.7 195 16.6
2009-03-19 12:01:09 51°23.782 2°52.814 176.8 5.3 189 18
2009-03-19 12:02:09 51°23.714 2°52.8 162.2 3.5 188 19.2
2009-03-19 12:03:09 51°23.641 2°52.792 172.1 5.8 186 19.6
2009-03-19 12:04:09 51°23.532 2°52.769 179 7.1 189 20.3
2009-03-19 12:05:09 51°23.412 2°52.742 178.9 7.3 189 19.8
2009-03-19 12:06:09 51°23.291 2°52.712 182.8 7.5 191 20
2009-03-19 12:07:09 51°23.172 2°52.657 191.4 7.6 199 20.9
2009-03-19 12:08:09 51°23.054 2°52.587 195.3 7.5 202 22.4
2009-03-19 12:09:10 51°22.936 2°52.506 195.4 7.6 203 22.6
2009-03-19 12:10:10 51°22.819 2°52.427 194.9 7.6 203 23.3
2009-03-19 12:11:10 51°22.702 2°52.351 194.8 7.6 202 22.2
2009-03-19 12:12:10 51°22.585 2°52.274 194.2 7.6 204 22.5
2009-03-19 12:13:10 51°22.469 2°52.198 194.3 7.6 201 22.4
2009-03-19 12:14:10 51°22.353 2°52.123 194.5 7.5 201 22.9
2009-03-19 12:15:10 51°22.236 2°52.048 194.1 7.5 200 23
2009-03-19 12:16:10 51°22.119 2°51.975 194.6 7.6 201 23.2
2009-03-19 12:17:10 51°22.002 2°51.909 185.3 7.4 195 23.5
2009-03-19 12:18:10 51°21.885 2°51.876 177.3 7.1 188 23.8
2009-03-19 12:19:10 51°21.781 2°51.848 172.6 5.1 190 23.6
2009-03-19 12:20:10 51°21.718 2°51.831 161.2 3.3 192 23.3
2009-03-19 12:21:10 51°21.675 2°51.813 151.1 2.3 194 23
2009-03-19 12:22:10 51°21.629 2°51.804 156.9 4.1 181 22.7
2009-03-19 12:23:10 51°21.53 2°51.785 180.3 7.9 189 21.9
2009-03-19 12:24:10 51°21.367 2°51.737 183.4 11.1 190 20.9
2009-03-19 12:25:10 51°21.165 2°51.736 170.1 12.9 177 18.4
2009-03-19 12:26:10 51°20.952 2°51.762 169.5 12.7 177 16.6
2009-03-19 12:27:10 51°20.738 2°51.786 170 13.1 177 14.7
2009-03-19 12:28:10 51°20.524 2°51.807 169.9 12.7 177 13.1
2009-03-19 12:29:10 51°20.311 2°51.832 169.1 12.9 177 13
2009-03-19 12:30:10 51°20.097 2°51.857 169.9 12.9 178 14.3
2009-03-19 12:31:10 51°19.882 2°51.881 169.2 12.9 176 15.2
2009-03-19 12:32:10 51°19.668 2°51.901 169.7 13.1 178 15.2
2009-03-19 12:33:10 51°19.452 2°51.928 168.5 12.9 176 15.1
2009-03-19 12:34:10 51°19.236 2°51.956 169.6 13 176 14.7
2009-03-19 12:35:10 51°19.022 2°51.985 169.2 12.9 176 13.8
2009-03-19 12:36:10 51°18.809 2°52.012 169.9 12.8 176 12.7
2009-03-19 12:37:10 51°18.598 2°52.042 166.5 12.5 173 11.8
2009-03-19 12:38:10 51°18.387 2°52.091 167.7 12.9 173 10.9
2009-03-19 12:39:10 51°18.175 2°52.139 166.1 12.8 172 10.2
2009-03-19 12:40:10 51°17.963 2°52.188 167 12.8 171 10
2009-03-19 12:41:09 51°17.755 2°52.239 166.5 12.9 170 9.8
2009-03-19 12:42:09 51°17.543 2°52.292 165.7 12.9 171 9.9
2009-03-19 12:43:09 51°17.331 2°52.348 166.1 13 171 9.9
2009-03-19 12:44:09 51°17.128 2°52.439 157 12.6 161 9.4
2009-03-19 12:45:09 51°16.931 2°52.552 156.2 12.7 160 9.4
2009-03-19 12:46:09 51°16.736 2°52.671 154.7 12.5 159 9.3
2009-03-19 12:47:10 51°16.537 2°52.788 157.1 12.5 161 11.2
2009-03-19 12:48:09 51°16.341 2°52.886 158.1 12.7 162 11.4
2009-03-19 12:49:09 51°16.142 2°52.984 154.5 12.4 162 11.4
2009-03-19 12:50:09 51°15.95 2°53.101 153.1 12.4 158 11.1
2009-03-19 12:51:09 51°15.757 2°53.219 153.1 12.3 159 10.8
2009-03-19 12:52:10 51°15.562 2°53.338 153.6 12.5 159 10.4
2009-03-19 12:53:09 51°15.374 2°53.455 152.5 12.6 158 9.8
2009-03-19 12:54:10 51°15.204 2°53.586 141.1 10 145 9.4
2009-03-19 12:55:10 51°15.072 2°53.738 136.7 9.7 143 9.4
2009-03-19 12:56:09 51°14.947 2°53.889 135.9 9.4 141 9
2009-03-19 12:57:09 51°14.835 2°54.056 128.6 9.1 133 9.1
2009-03-19 12:58:09 51°14.733 2°54.234 127.1 9.1 131 9.8
2009-03-19 12:59:09 51°14.631 2°54.413 126.6 9.1 132 9.9
2009-03-19 13:00:10 51°14.535 2°54.601 122.7 9 128 10.3
2009-03-19 13:01:10 51°14.449 2°54.794 119.6 8.9 124 10.4
2009-03-19 13:02:10 51°14.371 2°54.993 116.6 9 120 9.5
2009-03-19 13:03:10 51°14.29 2°55.194 127.1 8.2 128 10.1
2009-03-19 13:04:11 51°14.22 2°55.32 137.8 5 140 5.1
2009-03-19 13:05:14 51°14.154 2°55.397 147.6 5 146 -999
2009-03-19 13:06:14 51°14.065 2°55.48 151.4 6.9 154 -999
2009-03-19 13:07:14 51°13.955 2°55.553 157.8 7.3 159 -999
2009-03-19 13:08:13 51°13.843 2°55.626 156.9 7.4 157 9.8
2009-03-19 13:09:12 51°13.756 2°55.706 141.3 5.4 140 9.9
2009-03-19 13:10:14 51°13.703 2°55.81 122 4.8 122 10.6
2009-03-19 13:11:11 51°13.675 2°55.908 110.8 3.7 110 7
2009-03-19 13:12:10 51°13.665 2°55.955 119.4 1.1 123 4.9
2009-03-19 13:13:11 51°13.663 2°55.959 118.5 0.1 44 5.3